Time;durP1;ratioP1;P1;durP2;ratioP2;P2;SDS_P1;SDS_P2;PMS_P1;PMS_P2;Temp;Humidity;BMP_temperature;BMP_pressure;BME280_temperature;BME280_humidity;BME280_pressure;Samples;Min_cycle;Max_cycle;Signal;HPM_P1;HPM_P2
2021/05/27 00:01:16;;;;;;;9.47;4.53;;;;;;;10.26;87.88;99955.34;3439886;84;25950;-82
2021/05/27 00:06:17;;;;;;;10.50;5.23;;;;;;;10.29;87.83;99955.94;3423573;84;98812;-82
2021/05/27 00:11:17;;;;;;;10.10;4.83;;;;;;;10.31;88.01;99949.48;3432852;84;33149;-81
2021/05/27 00:16:18;;;;;;;9.63;6.00;;;;;;;10.33;87.83;99953.42;3433354;84;99554;-83
2021/05/27 00:21:20;;;;;;;9.67;4.00;;;;;;;10.38;87.81;99955.80;3429903;84;32419;-82
2021/05/27 00:26:21;;;;;;;8.87;3.93;;;;;;;10.39;87.73;99955.20;3427380;84;99333;-82
2021/05/27 00:31:22;;;;;;;10.10;4.40;;;;;;;10.42;87.58;99954.44;3435428;84;32485;-83
2021/05/27 00:36:22;;;;;;;7.77;3.40;;;;;;;10.45;87.98;99975.66;3431512;84;99362;-82
2021/05/27 00:41:24;;;;;;;9.60;4.37;;;;;;;10.47;88.03;99974.09;3436210;84;32532;-82
2021/05/27 00:46:25;;;;;;;8.73;4.00;;;;;;;10.49;88.25;99983.34;3429284;84;99536;-83
2021/05/27 00:51:29;;;;;;;7.20;3.95;;;;;;;10.48;88.27;99981.17;3436925;84;32635;-84
2021/05/27 00:56:30;;;;;;;9.23;4.55;;;;;;;10.48;88.20;99973.52;3424196;84;99276;-84
2021/05/27 01:01:32;;;;;;;9.10;4.10;;;;;;;10.46;88.74;99973.13;3427022;84;26196;-82
2021/05/27 01:06:33;;;;;;;9.30;4.87;;;;;;;10.42;89.17;99985.47;3426351;84;99016;-83
2021/05/27 01:11:34;;;;;;;9.73;4.80;;;;;;;10.38;89.38;99983.31;3428707;84;26632;-82
2021/05/27 01:16:34;;;;;;;7.17;4.00;;;;;;;10.38;89.82;99994.89;3423289;84;99085;-82
2021/05/27 01:21:37;;;;;;;9.70;4.43;;;;;;;10.37;90.17;99991.94;3435352;84;26904;-84
2021/05/27 01:26:38;;;;;;;9.10;3.53;;;;;;;10.35;90.36;99986.05;3416759;84;98848;-83
2021/05/27 01:31:39;;;;;;;6.43;3.30;;;;;;;10.37;90.41;99998.22;3439555;84;26020;-84
2021/05/27 01:36:47;;;;;;;7.60;3.57;;;;;;;10.35;90.87;100004.70;3433374;84;98587;-84
2021/05/27 01:41:50;;;;;;;7.65;3.62;;;;;;;10.37;90.97;100008.45;3433938;84;30659;-84
2021/05/27 01:46:51;;;;;;;10.28;3.50;;;;;;;10.36;91.01;100004.13;3431447;84;99270;-82
2021/05/27 01:51:52;;;;;;;7.58;3.02;;;;;;;10.36;91.51;100003.52;3438005;84;25867;-83
2021/05/27 01:56:53;;;;;;;7.37;3.30;;;;;;;10.35;91.16;100003.33;3436566;84;99238;-82
2021/05/27 02:01:54;;;;;;;6.37;3.77;;;;;;;10.34;91.53;100004.50;3437650;84;26691;-83
2021/05/27 02:06:55;;;;;;;7.83;3.60;;;;;;;10.32;92.45;100009.61;3431668;84;99131;-85
2021/05/27 02:11:56;;;;;;;6.83;3.90;;;;;;;10.33;92.27;100014.51;3434138;84;26057;-82
2021/05/27 02:16:57;;;;;;;8.37;3.17;;;;;;;10.33;92.56;100015.88;3434806;84;99051;-83
2021/05/27 02:21:58;;;;;;;9.47;3.70;;;;;;;10.35;92.82;100024.56;3438315;84;25837;-85
2021/05/27 02:26:59;;;;;;;5.70;2.97;;;;;;;10.35;92.66;100025.94;3428444;83;99217;-84
2021/05/27 02:31:59;;;;;;;5.33;2.98;;;;;;;10.38;92.00;100034.20;3428229;83;25800;-82
2021/05/27 02:37:00;;;;;;;4.93;2.50;;;;;;;10.38;92.00;100034.20;3428962;84;98991;-84
2021/05/27 02:42:02;;;;;;;4.80;2.80;;;;;;;10.40;91.66;100033.80;3427395;84;33785;-85
2021/05/27 02:47:03;;;;;;;5.72;2.58;;;;;;;10.40;91.66;100035.17;3422620;84;98927;-84
2021/05/27 02:52:04;;;;;;;7.97;2.95;;;;;;;10.39;91.50;100026.14;3424611;84;33256;-85
2021/05/27 02:57:05;;;;;;;6.60;2.60;;;;;;;10.38;91.67;100025.95;3432514;84;99092;-85
2021/05/27 03:02:06;;;;;;;6.47;3.13;;;;;;;10.35;91.52;100032.81;3425805;84;33260;-85
2021/05/27 03:07:06;;;;;;;7.17;3.47;;;;;;;10.30;91.56;100038.67;3420456;84;99091;-84
2021/05/27 03:12:08;;;;;;;7.90;3.73;;;;;;;10.26;91.93;100038.62;3445135;84;33293;-85
2021/05/27 03:17:09;;;;;;;9.10;4.40;;;;;;;10.23;92.00;100046.86;3420545;84;99077;-85
2021/05/27 03:22:10;;;;;;;9.07;5.70;;;;;;;10.21;92.20;100054.14;3441878;84;33211;-84
2021/05/27 03:27:11;;;;;;;14.00;6.70;;;;;;;10.21;92.49;100053.34;3438821;84;99002;-84
2021/05/27 03:32:12;;;;;;;11.30;7.35;;;;;;;10.24;92.68;100055.34;3436047;83;33275;-85
2021/05/27 03:37:12;;;;;;;11.20;7.10;;;;;;;10.27;93.58;100058.68;3428414;84;99349;-85
2021/05/27 03:42:13;;;;;;;10.15;7.12;;;;;;;10.26;93.23;100062.00;3442434;84;32134;-86
2021/05/27 03:47:14;;;;;;;11.33;7.60;;;;;;;10.27;93.78;100060.86;3427535;84;99448;-84
2021/05/27 03:52:15;;;;;;;10.93;8.10;;;;;;;10.28;93.71;100064.37;3440965;84;31635;-85
2021/05/27 03:57:15;;;;;;;12.03;7.20;;;;;;;10.30;93.56;100066.95;3429496;84;99272;-85
2021/05/27 04:02:16;;;;;;;12.63;7.90;;;;;;;10.36;94.00;100079.16;3441860;84;31620;-85
2021/05/27 04:07:20;;;;;;;11.15;7.33;;;;;;;10.37;93.88;100087.61;3429405;84;98922;-85
2021/05/27 04:17:39;;;;;;;12.25;7.55;;;;;;;10.46;93.69;100105.19;3428711;84;99543;-82
2021/05/27 04:22:43;;;;;;;9.77;7.30;;;;;;;10.49;93.38;100110.70;3430472;84;26451;-82
2021/05/27 04:27:45;;;;;;;9.90;7.17;;;;;;;10.53;93.29;100107.37;3427248;84;99152;-81
2021/05/27 04:33:12;;;;;;;10.72;6.45;;;;;;;10.57;93.33;100119.19;3433622;84;31360;-78
2021/05/27 04:38:10;;;;;;;10.90;6.12;;;;;;;10.61;93.01;100120.58;3418547;84;99261;-83
2021/05/27 04:43:12;;;;;;;10.50;5.40;;;;;;;10.65;92.78;100124.16;3446595;84;31059;-84
2021/05/27 04:48:15;;;;;;;8.28;5.62;;;;;;;10.64;92.13;100127.48;3424616;84;99061;-83
2021/05/27 04:53:18;;;;;;;9.83;6.50;;;;;;;10.68;92.04;100137.16;3445100;84;31683;-84
2021/05/27 04:58:20;;;;;;;9.58;6.25;;;;;;;10.65;91.74;100152.48;3424827;84;99275;-83
2021/05/27 05:03:21;;;;;;;10.63;7.15;;;;;;;10.62;91.01;100155.18;3439537;84;30701;-82
2021/05/27 05:08:21;;;;;;;9.37;6.50;;;;;;;10.65;90.81;100149.73;3427198;84;99083;-84
2021/05/27 05:13:22;;;;;;;9.53;6.60;;;;;;;10.77;91.21;100164.53;3434326;84;31086;-83
2021/05/27 05:18:23;;;;;;;25.67;20.07;;;;;;;10.84;91.09;100159.67;3430297;84;99439;-85
2021/05/27 05:23:24;;;;;;;10.00;7.40;;;;;;;10.89;89.98;100171.66;3435382;84;34845;-83
2021/05/27 05:28:25;;;;;;;11.10;7.53;;;;;;;10.85;89.57;100181.28;3425149;84;99137;-83
2021/05/27 05:33:25;;;;;;;18.17;14.67;;;;;;;10.94;89.79;100172.67;3438013;84;35477;-83
2021/05/27 05:38:26;;;;;;;13.25;9.15;;;;;;;11.04;89.64;100178.26;3429112;84;99557;-83
2021/05/27 05:43:27;;;;;;;16.30;12.93;;;;;;;11.15;89.77;100179.67;3433877;84;28411;-83
2021/05/27 05:48:28;;;;;;;10.67;7.90;;;;;;;11.17;89.14;100185.00;3432841;82;99367;-82
2021/05/27 05:53:28;;;;;;;16.57;13.07;;;;;;;11.22;89.09;100200.36;3429603;84;33685;-82
2021/05/27 05:58:29;;;;;;;17.63;12.50;;;;;;;11.29;88.74;100199.80;3422671;82;99272;-82
2021/05/27 06:03:32;;;;;;;16.47;11.83;;;;;;;11.31;88.77;100207.69;3438394;84;32995;-84
2021/05/27 06:08:33;;;;;;;28.90;23.80;;;;;;;11.34;88.30;100214.59;3434597;83;99131;-82
2021/05/27 06:13:34;;;;;;;32.15;26.82;;;;;;;11.29;87.43;100219.70;3434375;84;26063;-83
2021/05/27 06:18:35;;;;;;;18.47;12.70;;;;;;;11.27;87.54;100220.08;3426071;84;99393;-83
2021/05/27 06:23:36;;;;;;;12.73;10.23;;;;;;;11.32;87.32;100224.41;3436388;84;32434;-82
2021/05/27 06:28:37;;;;;;;20.73;12.03;;;;;;;11.35;87.26;100237.44;3434124;84;99193;-83
2021/05/27 06:33:39;;;;;;;13.33;10.00;;;;;;;11.50;86.83;100236.33;3438108;84;26364;-84
2021/05/27 06:38:39;;;;;;;15.63;9.50;;;;;;;11.67;87.01;100240.54;3423299;84;99402;-84
2021/05/27 06:43:40;;;;;;;11.73;8.47;;;;;;;12.04;86.67;100234.76;3422770;84;32962;-85
2021/05/27 06:48:41;;;;;;;11.35;7.72;;;;;;;12.28;85.05;100229.86;3415726;84;99310;-85
2021/05/27 06:53:42;;;;;;;8.53;5.72;;;;;;;12.74;84.61;100243.06;3412909;84;33036;-83
2021/05/27 06:58:43;;;;;;;11.40;6.07;;;;;;;13.22;83.94;100238.67;3405393;84;98875;-83
2021/05/27 07:03:44;;;;;;;9.93;6.20;;;;;;;13.53;81.52;100246.09;3418050;84;26034;-86
2021/05/27 07:08:45;;;;;;;8.40;5.00;;;;;;;13.80;80.25;100245.77;3409494;84;98988;-87
2021/05/27 07:13:45;;;;;;;9.90;5.67;;;;;;;13.93;78.18;100252.41;3418585;84;26730;-83
2021/05/27 07:18:46;;;;;;;8.97;5.30;;;;;;;14.26;77.79;100254.61;3412996;84;99002;-87
2021/05/27 07:23:47;;;;;;;7.62;4.42;;;;;;;14.51;76.66;100262.93;3425351;84;25727;-82
2021/05/27 07:28:48;;;;;;;8.33;4.90;;;;;;;14.78;76.96;100265.28;3402929;84;99031;-85
2021/05/27 07:33:49;;;;;;;7.60;4.25;;;;;;;14.86;75.24;100262.66;3419550;84;25954;-85
2021/05/27 07:38:50;;;;;;;7.30;4.10;;;;;;;14.87;74.76;100258.69;3418407;84;98990;-86
2021/05/27 07:43:52;;;;;;;11.08;4.90;;;;;;;15.10;73.98;100259.47;3427673;84;33813;-88
2021/05/27 07:48:54;;;;;;;7.05;3.35;;;;;;;15.29;74.19;100269.37;3431474;84;98993;-89
2021/05/27 07:53:55;;;;;;;6.42;3.27;;;;;;;15.33;71.12;100274.90;3428264;84;26233;-85
2021/05/27 07:58:56;;;;;;;6.63;3.50;;;;;;;15.33;72.62;100278.47;3426543;84;98854;-86
2021/05/27 08:03:57;;;;;;;6.73;3.50;;;;;;;15.41;72.08;100279.16;3428368;84;33884;-85
2021/05/27 08:08:58;;;;;;;6.03;3.57;;;;;;;15.52;71.21;100282.01;3430654;84;99061;-86
2021/05/27 08:13:59;;;;;;;8.53;3.50;;;;;;;15.59;70.94;100283.93;3440903;84;33220;-86
2021/05/27 08:19:00;;;;;;;6.50;3.70;;;;;;;15.54;70.84;100291.31;3428637;84;98841;-87
2021/05/27 08:24:01;;;;;;;5.37;3.00;;;;;;;15.41;68.56;100293.02;3438207;84;33271;-88
2021/05/27 08:29:03;;;;;;;5.43;2.83;;;;;;;15.22;69.09;100298.56;3434699;84;99230;-88
2021/05/27 08:34:03;;;;;;;4.47;2.87;;;;;;;15.19;68.42;100303.52;3440647;84;33300;-87
2021/05/27 08:39:06;;;;;;;4.60;3.13;;;;;;;15.25;68.97;100299.11;3438782;84;98847;-87
2021/05/27 08:44:10;;;;;;;6.10;2.98;;;;;;;15.29;68.93;100299.86;3440994;84;33244;-83
2021/05/27 08:49:12;;;;;;;5.42;3.10;;;;;;;15.33;68.14;100300.66;3437820;84;99012;-87
2021/05/27 08:54:13;;;;;;;5.62;2.87;;;;;;;15.25;68.87;100307.42;3446680;84;26476;-89
2021/05/27 08:59:14;;;;;;;5.73;3.33;;;;;;;15.35;68.45;100312.11;3431070;84;98931;-86
2021/05/27 09:04:23;;;;;;;6.47;3.50;;;;;;;15.34;66.66;100313.31;3441592;84;33676;-84
2021/05/27 09:09:23;;;;;;;5.08;3.40;;;;;;;15.32;67.42;100325.37;3440304;84;98688;-86
2021/05/27 09:14:30;;;;;;;6.33;3.40;;;;;;;15.57;67.44;100316.82;3447788;84;33297;-87
2021/05/27 09:19:30;;;;;;;6.08;3.58;;;;;;;15.67;67.24;100329.20;3415035;84;26377;-88
2021/05/27 09:24:46;;;;;;;7.30;3.00;;;;;;;16.00;65.74;100332.58;3434597;84;99300;-87
2021/05/27 09:29:49;;;;;;;5.90;3.40;;;;;;;15.93;65.42;100327.71;3447016;84;26096;-87
2021/05/27 09:34:54;;;;;;;6.05;3.37;;;;;;;15.70;65.35;100338.69;3436603;84;99109;-87
2021/05/27 09:39:57;;;;;;;4.33;2.62;;;;;;;15.61;66.01;100346.13;3439645;84;25794;-82
2021/05/27 09:45:18;;;;;;;6.92;3.33;;;;;;;15.71;66.02;100341.65;3441670;84;99256;-84
2021/05/27 09:50:18;;;;;;;6.17;2.90;;;;;;;16.00;66.33;100340.91;3431284;84;26122;-85
2021/05/27 09:55:21;;;;;;;5.33;3.43;;;;;;;16.24;65.18;100341.80;3442050;84;99196;-86
2021/05/27 10:00:28;;;;;;;7.30;3.10;;;;;;;16.36;65.50;100346.16;3444419;84;26291;-83
2021/05/27 10:05:28;;;;;;;5.60;2.98;;;;;;;16.37;64.10;100358.87;3436307;84;99444;-88
2021/05/27 10:10:30;;;;;;;8.03;3.10;;;;;;;16.28;64.18;100354.42;3448155;84;25920;-87
2021/05/27 10:15:30;;;;;;;5.93;3.10;;;;;;;16.04;63.80;100354.15;3440444;84;99185;-84
2021/05/27 10:20:33;;;;;;;6.17;2.70;;;;;;;16.07;64.16;100352.53;3439306;84;33835;-86
2021/05/27 10:25:34;;;;;;;6.72;3.00;;;;;;;16.41;64.48;100349.90;3427613;84;99487;-88
2021/05/27 10:30:39;;;;;;;7.07;3.17;;;;;;;16.96;63.33;100343.93;3443363;84;25704;-90
2021/05/27 10:35:54;;;;;;;4.60;2.33;;;;;;;17.13;61.27;100356.16;3437127;84;99186;-85
2021/05/27 10:40:55;;;;;;;6.03;2.92;;;;;;;17.37;60.59;100345.20;3442676;84;25908;-88
2021/05/27 10:46:11;;;;;;;3.93;2.30;;;;;;;17.76;59.78;100346.68;3481080;83;99048;-90
2021/05/27 10:51:45;;;;;;;4.00;2.40;;;;;;;17.80;60.20;100346.02;3442779;84;26378;-88
2021/05/27 10:56:46;;;;;;;4.25;2.25;;;;;;;17.70;59.08;100351.17;3436935;84;99178;-86
2021/05/27 11:01:50;;;;;;;3.02;2.17;;;;;;;17.60;59.97;100354.17;3414264;84;26306;-85
2021/05/27 11:07:12;;;;;;;4.20;2.30;;;;;;;17.72;59.61;100354.93;3434785;84;99036;-86
2021/05/27 11:12:20;;;;;;;3.87;2.37;;;;;;;17.71;59.95;100356.15;3439178;84;26325;-90
2021/05/27 11:17:25;;;;;;;3.77;2.00;;;;;;;18.03;59.16;100345.17;3438913;84;99079;-87
2021/05/27 11:22:36;;;;;;;3.58;1.70;;;;;;;18.11;57.64;100350.76;3430194;84;26354;-82
2021/05/27 11:28:13;;;;;;;2.92;1.92;;;;;;;17.79;56.51;100348.63;3439461;84;99035;-88
2021/05/27 11:33:31;;;;;;;3.40;2.00;;;;;;;17.52;56.97;100352.71;3441773;84;25769;-85
2021/05/27 11:38:40;;;;;;;3.37;1.80;;;;;;;17.38;56.83;100351.56;3426548;84;98779;-87
2021/05/27 11:43:48;;;;;;;4.13;2.10;;;;;;;17.32;58.02;100358.20;3428527;84;43592;-88
2021/05/27 11:53:58;;;;;;;3.00;1.70;;;;;;;17.01;58.91;100346.23;3448052;84;26080;-88
2021/05/27 11:58:59;;;;;;;4.40;1.47;;;;;;;17.14;58.03;100347.99;3431862;84;99037;-87
2021/05/27 12:04:17;;;;;;;2.50;1.57;;;;;;;17.78;59.12;100345.66;3425940;84;26672;-86
2021/05/27 12:09:31;;;;;;;3.17;1.67;;;;;;;18.46;57.40;100350.02;3434084;84;98881;-88
2021/05/27 12:14:45;;;;;;;2.95;2.02;;;;;;;18.52;55.35;100341.35;3438836;84;99167;-88
2021/05/27 12:19:49;;;;;;;2.05;1.50;;;;;;;18.51;55.53;100336.38;3436344;84;26419;-89
2021/05/27 12:25:09;;;;;;;3.37;1.87;;;;;;;18.48;56.44;100343.42;3439112;84;99231;-88
2021/05/27 12:30:12;;;;;;;3.50;2.10;;;;;;;18.58;56.06;100347.35;3444732;84;25765;-89
2021/05/27 12:35:31;;;;;;;3.27;1.90;;;;;;;18.89;53.84;100343.64;3425681;84;98917;-87
2021/05/27 12:40:40;;;;;;;3.95;2.05;;;;;;;18.96;55.16;100341.47;3414615;84;26439;-87
2021/05/27 12:45:45;;;;;;;3.35;1.70;;;;;;;19.02;53.82;100341.12;3399387;85;98970;-88
2021/05/27 12:51:01;;;;;;;14.75;4.17;;;;;;;19.06;55.38;100339.63;3392280;84;25811;-89
2021/05/27 12:56:23;;;;;;;;;;;;;;;19.20;54.66;100338.69;3383358;85;98924;-88
2021/05/27 13:01:37;;;;;;;3.42;2.17;;;;;;;19.36;54.23;100333.72;3391634;85;26402;-86
2021/05/27 13:06:39;;;;;;;6.17;2.47;;;;;;;19.41;53.23;100340.94;3390115;85;99096;-87
2021/05/27 13:11:44;;;;;;;5.95;2.55;;;;;;;19.47;53.26;100341.20;3403553;85;26584;-87
2021/05/27 13:16:57;;;;;;;3.90;2.00;;;;;;;19.66;52.14;100336.89;3397393;85;98942;-87
2021/05/27 13:22:04;;;;;;;3.40;1.95;;;;;;;19.76;53.27;100326.64;3400703;85;26121;-86
2021/05/27 13:27:12;;;;;;;4.42;2.35;;;;;;;19.83;52.34;100335.61;3387760;85;99056;-86
2021/05/27 13:32:35;;;;;;;5.03;2.72;;;;;;;19.69;52.33;100337.41;3399106;85;26197;-88
2021/05/27 13:37:49;;;;;;;4.17;1.70;;;;;;;19.85;52.37;100331.78;3392817;85;99014;-86
2021/05/27 13:42:52;;;;;;;3.25;1.50;;;;;;;20.12;52.65;100325.21;3426816;86;25819;-85
2021/05/27 13:47:54;;;;;;;4.33;1.70;;;;;;;19.94;51.53;100326.31;3430043;85;98969;-90
2021/05/27 13:53:03;;;;;;;3.90;2.10;;;;;;;19.66;49.38;100329.91;3435693;86;25888;-88
2021/05/27 13:58:05;;;;;;;3.92;1.98;;;;;;;19.13;51.21;100353.42;3417801;86;99178;-85
2021/05/27 14:03:08;;;;;;;6.50;2.67;;;;;;;18.65;52.48;100367.33;3421862;86;25680;-89
2021/05/27 14:08:10;;;;;;;4.28;2.00;;;;;;;17.95;55.54;100399.42;3424354;86;99033;-89
2021/05/27 14:13:20;;;;;;;4.87;2.22;;;;;;;17.37;58.12;100409.78;3470960;82;54535;-88
2021/05/27 14:18:23;;;;;;;5.47;1.85;;;;;;;16.82;60.50;100410.85;3408518;82;99018;-88
2021/05/27 14:23:27;;;;;;;2.33;1.40;;;;;;;16.35;61.83;100387.65;3475654;83;25805;-92
2021/05/27 14:28:28;;;;;;;2.75;1.65;;;;;;;16.24;63.59;100383.45;3475135;83;99042;-93
2021/05/27 14:33:29;;;;;;;3.93;2.03;;;;;;;16.22;63.84;100372.75;3494970;83;28510;-88
2021/05/27 14:38:29;;;;;;;2.43;1.80;;;;;;;16.24;64.67;100380.67;3458851;83;98815;-86
2021/05/27 14:43:34;;;;;;;5.40;2.80;;;;;;;16.15;65.57;100384.55;3459608;84;33266;-89
2021/05/27 14:48:35;;;;;;;5.83;2.67;;;;;;;15.92;65.88;100381.66;3455910;84;98829;-86
2021/05/27 14:53:37;;;;;;;6.73;3.47;;;;;;;15.91;67.07;100382.24;3460978;84;33838;-83
2021/05/27 14:58:38;;;;;;;7.60;4.03;;;;;;;15.88;67.75;100389.23;3444375;84;98727;-86
2021/05/27 15:03:39;;;;;;;6.17;3.73;;;;;;;15.77;68.47;100393.52;3431063;84;33355;-85
2021/05/27 15:08:40;;;;;;;8.33;4.63;;;;;;;15.64;69.66;100398.61;3454897;83;98831;-87
2021/05/27 15:13:41;;;;;;;5.07;3.10;;;;;;;15.54;69.67;100406.42;3479323;83;33325;-86
2021/05/27 15:18:42;;;;;;;4.87;2.87;;;;;;;15.36;70.75;100414.13;3461505;83;98848;-87
2021/05/27 15:24:00;;;;;;;5.57;2.57;;;;;;;15.14;70.42;100423.75;3474653;83;33225;-89
2021/05/27 15:29:07;;;;;;;3.33;1.60;;;;;;;14.83;71.47;100431.09;3427886;83;98778;-86
2021/05/27 15:34:06;;;;;;;1.77;1.15;;;;;;;14.68;71.41;100427.44;3447477;83;26425;-85
2021/05/27 15:39:13;;;;;;;2.37;1.40;;;;;;;14.54;71.08;100421.95;3394424;85;98820;-92
2021/05/27 15:44:14;;;;;;;4.20;1.20;;;;;;;14.30;70.87;100417.34;3443766;83;26364;-86
2021/05/27 15:49:18;;;;;;;2.27;1.17;;;;;;;14.21;71.39;100413.62;3536738;80;98535;-86
2021/05/27 15:54:19;;;;;;;3.17;1.27;;;;;;;14.03;71.25;100410.68;3543530;80;25820;-84
2021/05/27 15:59:19;;;;;;;3.40;1.50;;;;;;;13.94;71.83;100406.95;3512274;81;98729;-87
2021/05/27 16:04:22;;;;;;;2.93;1.80;;;;;;;13.91;71.71;100402.20;3462614;83;33361;-84
2021/05/27 16:09:23;;;;;;;2.93;1.57;;;;;;;13.82;71.68;100403.23;3398333;85;98625;-86
2021/05/27 16:14:26;;;;;;;3.58;1.57;;;;;;;13.70;72.15;100391.80;3416914;84;33225;-86
2021/05/27 16:19:26;;;;;;;3.83;2.10;;;;;;;13.73;72.67;100399.31;3398296;85;98663;-84
2021/05/27 16:24:27;;;;;;;4.40;2.10;;;;;;;13.64;72.32;100394.20;3400364;84;33901;-86
2021/05/27 16:29:28;;;;;;;3.73;2.13;;;;;;;13.58;72.14;100395.00;3401168;84;98870;-81
2021/05/27 16:34:38;;;;;;;3.83;2.20;;;;;;;13.49;72.56;100390.45;3399660;84;98683;-84
2021/05/27 16:39:35;;;;;;;6.07;2.50;;;;;;;13.45;72.94;100385.52;3404962;85;26453;-85
2021/05/27 16:44:36;;;;;;;4.00;2.10;;;;;;;13.38;73.09;100384.95;3478407;83;98978;-84
2021/05/27 16:49:37;;;;;;;4.07;2.23;;;;;;;13.32;73.13;100389.88;3412223;85;33271;-82
2021/05/27 16:54:38;;;;;;;7.47;2.90;;;;;;;13.26;73.89;100392.84;3379641;84;99037;-82
2021/05/27 16:59:39;;;;;;;5.33;3.30;;;;;;;13.20;74.08;100391.67;3444658;84;33273;-82
2021/05/27 17:04:40;;;;;;;6.23;3.23;;;;;;;13.14;74.35;100389.87;3450414;84;99110;-81
2021/05/27 17:09:40;;;;;;;5.50;2.90;;;;;;;13.16;74.20;100395.02;3450379;84;33288;-83
2021/05/27 17:14:41;;;;;;;4.23;2.33;;;;;;;13.21;74.47;100396.01;3456198;82;98761;-82
2021/05/27 17:19:42;;;;;;;5.95;2.62;;;;;;;13.23;74.87;100394.43;3479621;83;33211;-87
2021/05/27 17:24:43;;;;;;;7.73;2.70;;;;;;;13.25;75.29;100393.43;3494957;83;99113;-82
2021/05/27 17:29:44;;;;;;;4.37;2.30;;;;;;;13.28;75.89;100399.56;3468619;83;32123;-87
2021/05/27 17:34:45;;;;;;;6.07;2.17;;;;;;;13.30;75.68;100388.12;3482685;83;99215;-86
2021/05/27 17:39:45;;;;;;;6.30;3.00;;;;;;;13.36;75.80;100391.45;3492286;83;32250;-83
2021/05/27 17:44:47;;;;;;;4.07;2.30;;;;;;;13.44;75.91;100394.42;3478395;82;98988;-82
2021/05/27 17:49:50;;;;;;;5.80;2.77;;;;;;;13.49;75.88;100400.13;3412287;85;32154;-84
2021/05/27 17:54:51;;;;;;;5.93;2.67;;;;;;;13.48;76.01;100401.33;3494079;82;98717;-82
2021/05/27 17:59:54;;;;;;;4.57;2.40;;;;;;;13.50;75.93;100401.70;3425371;85;32210;-83
2021/05/27 18:04:58;;;;;;;7.05;3.05;;;;;;;13.50;76.16;100410.00;3468906;83;98947;-87
2021/05/27 18:09:59;;;;;;;6.20;2.67;;;;;;;13.51;76.18;100411.60;3489996;83;33257;-84
2021/05/27 18:15:25;;;;;;;6.30;2.77;;;;;;;13.50;75.99;100419.09;3414757;84;99044;-84
2021/05/27 18:20:38;;;;;;;5.58;2.90;;;;;;;13.46;76.16;100427.98;3557983;82;34406;-85
2021/05/27 18:25:45;;;;;;;6.70;2.67;;;;;;;13.41;76.25;100426.22;3546876;82;98932;-85
2021/05/27 18:30:44;;;;;;;6.28;3.00;;;;;;;13.34;76.50;100426.20;3558641;82;33344;-85
2021/05/27 18:35:46;;;;;;;6.08;2.87;;;;;;;13.19;76.68;100411.59;3532515;81;99131;-83
2021/05/27 18:40:48;;;;;;;7.47;2.98;;;;;;;13.29;77.13;100430.73;3560143;80;33306;-85
2021/05/27 18:45:50;;;;;;;6.80;3.12;;;;;;;13.25;77.24;100428.59;3559772;81;98663;-86
2021/05/27 18:50:51;;;;;;;7.25;3.05;;;;;;;13.16;77.65;100430.94;3564472;82;33190;-88
2021/05/27 18:55:52;;;;;;;9.25;3.72;;;;;;;13.16;77.65;100430.94;3535450;82;98698;-88
2021/05/27 19:00:53;;;;;;;10.83;4.97;;;;;;;13.11;77.81;100434.09;3547190;82;31579;-87
2021/05/27 19:05:54;;;;;;;9.33;4.60;;;;;;;13.06;78.15;100436.66;3557918;82;98897;-86
2021/05/27 19:10:54;;;;;;;9.63;4.47;;;;;;;13.02;78.42;100448.91;3571128;81;31746;-86
2021/05/27 19:15:55;;;;;;;8.67;3.50;;;;;;;12.95;78.45;100461.27;3562805;81;99392;-83
2021/05/27 19:20:56;;;;;;;8.53;3.90;;;;;;;12.90;78.87;100456.12;3577885;81;31593;-83
2021/05/27 19:25:57;;;;;;;9.30;2.90;;;;;;;12.84;78.73;100468.16;3550359;81;99014;-86
2021/05/27 19:30:58;;;;;;;4.72;2.17;;;;;;;12.78;78.78;100484.12;3568365;81;33004;-83
2021/05/27 19:36:03;;;;;;;4.90;2.00;;;;;;;12.67;78.36;100486.05;3565534;81;98751;-86
2021/05/27 19:41:04;;;;;;;5.17;1.60;;;;;;;12.61;77.80;100502.80;3583792;81;31728;-85
2021/05/27 19:46:11;;;;;;;3.37;1.50;;;;;;;12.52;77.39;100510.06;3546604;81;99090;-86
2021/05/27 19:51:12;;;;;;;3.43;1.50;;;;;;;12.49;77.06;100506.68;3443187;84;26923;-85
2021/05/27 19:56:24;;;;;;;4.50;1.70;;;;;;;12.45;76.80;100511.42;3555949;80;98951;-88
2021/05/27 20:01:25;;;;;;;4.65;2.10;;;;;;;12.42;76.65;100512.78;3545056;82;31660;-88
2021/05/27 20:06:26;;;;;;;8.83;2.67;;;;;;;12.27;76.23;100496.72;3540538;80;99026;-87
2021/05/27 20:11:27;;;;;;;6.73;2.70;;;;;;;12.35;76.10;100509.97;3555636;80;34952;-87
2021/05/27 20:16:28;;;;;;;4.57;2.00;;;;;;;12.31;76.02;100510.56;3526455;82;98686;-87
2021/05/27 20:21:29;;;;;;;4.40;1.53;;;;;;;12.27;76.05;100514.66;3551450;82;34861;-89
2021/05/27 20:26:29;;;;;;;4.30;1.67;;;;;;;12.24;76.24;100517.40;3554044;82;98710;-87
2021/05/27 20:31:30;;;;;;;4.23;1.33;;;;;;;12.21;76.21;100522.33;3564745;82;34787;-85
2021/05/27 20:36:31;;;;;;;5.80;1.33;;;;;;;12.15;76.31;100530.16;3531222;80;98757;-86
2021/05/27 20:41:32;;;;;;;3.33;1.20;;;;;;;12.11;76.59;100532.70;3552675;82;34795;-87
2021/05/27 20:46:33;;;;;;;3.65;1.37;;;;;;;12.02;76.64;100528.91;3540699;82;99017;-87
2021/05/27 20:51:34;;;;;;;3.40;1.33;;;;;;;11.96;76.67;100528.26;3555898;82;27135;-86
2021/05/27 20:56:35;;;;;;;4.70;1.50;;;;;;;11.88;76.66;100532.16;3540853;82;99103;-89
2021/05/27 21:01:37;;;;;;;5.07;1.40;;;;;;;11.74;76.73;100534.22;3525184;82;28581;-88
2021/05/27 21:06:38;;;;;;;3.60;1.10;;;;;;;11.63;77.01;100541.61;3548400;82;98939;-89
2021/05/27 21:11:39;;;;;;;3.43;1.60;;;;;;;11.40;77.30;100529.16;3543529;82;25947;-89
2021/05/27 21:16:39;;;;;;;3.07;1.30;;;;;;;11.39;77.55;100546.87;3548731;82;98928;-88
2021/05/27 21:21:41;;;;;;;4.33;1.27;;;;;;;11.24;77.78;100545.13;3550457;82;32379;-87
2021/05/27 21:26:42;;;;;;;3.67;1.40;;;;;;;11.12;78.23;100541.27;3547580;82;99055;-88
2021/05/27 21:31:43;;;;;;;4.67;1.60;;;;;;;11.00;78.53;100549.77;3551327;82;25863;-89
2021/05/27 21:36:44;;;;;;;5.40;1.80;;;;;;;10.81;78.96;100545.27;3549043;82;99156;-88
2021/05/27 21:41:45;;;;;;;4.37;1.67;;;;;;;10.77;79.27;100569.77;3569921;82;32687;-86
2021/05/27 21:46:46;;;;;;;5.40;1.57;;;;;;;10.69;79.40;100563.98;3547999;81;99009;-88
2021/05/27 21:51:50;;;;;;;3.57;1.53;;;;;;;10.53;79.72;100562.00;3559763;82;32526;-86
2021/05/27 21:56:50;;;;;;;3.43;1.77;;;;;;;10.47;80.01;100572.52;3456725;84;98872;-87
2021/05/27 22:01:51;;;;;;;3.80;1.83;;;;;;;10.36;80.41;100573.55;3550576;82;32619;-87
2021/05/27 22:06:52;;;;;;;6.23;2.27;;;;;;;10.26;80.45;100572.22;3542682;82;99007;-87
2021/05/27 22:11:53;;;;;;;7.00;2.57;;;;;;;10.18;80.75;100572.48;3548464;82;32695;-87
2021/05/27 22:16:54;;;;;;;6.97;1.90;;;;;;;10.13;80.79;100576.92;3541717;82;98752;-87
2021/05/27 22:21:58;;;;;;;5.07;2.00;;;;;;;10.08;80.97;100582.77;3546318;82;32614;-86
2021/05/27 22:26:59;;;;;;;5.67;2.10;;;;;;;10.06;81.07;100586.45;3469610;83;99126;-88
2021/05/27 22:32:01;;;;;;;9.03;4.70;;;;;;;10.04;81.06;100590.16;3475533;83;32462;-88
2021/05/27 22:37:03;;;;;;;8.33;2.97;;;;;;;10.01;81.63;100578.48;3539840;82;98756;-87
2021/05/27 22:42:04;;;;;;;10.47;4.30;;;;;;;10.01;81.89;100579.86;3537729;82;26220;-87
2021/05/27 22:47:07;;;;;;;10.13;4.47;;;;;;;9.99;81.96;100584.94;3536840;82;99225;-87
2021/05/27 22:52:08;;;;;;;10.25;3.77;;;;;;;9.97;82.63;100580.41;3543927;82;34788;-87
2021/05/27 22:57:09;;;;;;;11.23;4.20;;;;;;;9.97;82.95;100582.55;3526079;82;98951;-86
2021/05/27 23:02:12;;;;;;;8.60;4.40;;;;;;;9.95;83.39;100581.34;3540927;82;26763;-88
2021/05/27 23:07:13;;;;;;;9.38;3.83;;;;;;;9.93;83.32;100578.95;3541249;82;98805;-86
2021/05/27 23:12:15;;;;;;;9.13;4.23;;;;;;;9.91;83.41;100574.41;3527394;82;25834;-88
2021/05/27 23:17:16;;;;;;;7.92;3.30;;;;;;;9.89;83.48;100580.87;3513677;82;98813;-87
2021/05/27 23:22:17;;;;;;;8.97;3.93;;;;;;;9.85;83.56;100576.45;3545420;82;26264;-87
2021/05/27 23:27:18;;;;;;;7.33;3.47;;;;;;;9.81;83.77;100578.38;3523279;82;98822;-87
2021/05/27 23:32:20;;;;;;;12.40;4.10;;;;;;;9.77;83.99;100577.52;3544876;82;32978;-88
2021/05/27 23:37:21;;;;;;;8.13;4.00;;;;;;;9.71;84.48;100572.12;3510800;82;98856;-86